createdAt,value
2019-05-19T00:00:43.979Z,8.83
2019-05-19T00:03:13.307Z,8.87
2019-05-19T00:05:42.650Z,9.97
2019-05-19T00:08:12.243Z,10.10
2019-05-19T00:10:41.556Z,9.27
2019-05-19T00:13:10.940Z,9.53
2019-05-19T00:15:40.532Z,9.10
2019-05-19T00:18:09.823Z,9.57
2019-05-19T00:20:39.176Z,10.03
2019-05-19T00:23:08.490Z,10.90
2019-05-19T00:25:37.837Z,10.77
2019-05-19T00:28:07.440Z,10.57
2019-05-19T00:30:37.053Z,10.53
2019-05-19T00:33:06.351Z,10.80
2019-05-19T00:35:36.022Z,10.70
2019-05-19T00:38:05.753Z,10.10
2019-05-19T00:40:35.149Z,10.50
2019-05-19T00:43:04.502Z,10.60
2019-05-19T00:45:33.889Z,10.23
2019-05-19T00:48:03.335Z,11.80
2019-05-19T00:50:32.701Z,10.17
2019-05-19T00:53:02.270Z,9.30
2019-05-19T00:55:32.543Z,9.27
2019-05-19T00:58:03.628Z,10.70
2019-05-19T01:00:32.921Z,10.60
2019-05-19T01:03:02.471Z,10.07
2019-05-19T01:05:31.769Z,9.70
2019-05-19T01:08:01.313Z,10.43
2019-05-19T01:10:30.632Z,9.87
2019-05-19T01:13:00.158Z,9.53
2019-05-19T01:15:29.713Z,10.07
2019-05-19T01:17:59.021Z,10.23
2019-05-19T01:20:28.392Z,10.00
2019-05-19T01:22:57.769Z,11.00
2019-05-19T01:25:27.172Z,10.87
2019-05-19T01:27:56.713Z,10.97
2019-05-19T01:30:26.029Z,10.90
2019-05-19T01:32:55.299Z,11.07
2019-05-19T01:35:25.009Z,10.67
2019-05-19T01:37:54.565Z,10.53
2019-05-19T01:40:23.874Z,10.07
2019-05-19T01:42:53.216Z,11.17
2019-05-19T01:45:22.506Z,10.70
2019-05-19T01:47:51.873Z,11.20
2019-05-19T01:50:21.559Z,11.57
2019-05-19T01:52:50.940Z,11.53
2019-05-19T01:55:20.240Z,10.27
2019-05-19T01:57:49.847Z,9.80
2019-05-19T02:00:19.736Z,11.53
2019-05-19T02:02:49.124Z,10.30
2019-05-19T02:05:18.765Z,10.60
2019-05-19T02:07:48.058Z,10.50
2019-05-19T02:10:17.746Z,10.57
2019-05-19T02:12:47.351Z,9.90
2019-05-19T02:15:17.053Z,10.83
2019-05-19T02:17:46.635Z,10.57
2019-05-19T02:20:16.251Z,10.87
2019-05-19T02:22:45.579Z,10.53
2019-05-19T02:25:14.988Z,10.97
2019-05-19T02:27:44.555Z,11.03
2019-05-19T02:30:14.255Z,11.50
2019-05-19T02:32:43.860Z,11.17
2019-05-19T02:35:13.591Z,11.73
2019-05-19T02:37:42.873Z,10.70
2019-05-19T02:40:12.743Z,10.87
2019-05-19T02:42:43.209Z,11.47
2019-05-19T02:45:12.895Z,11.80
2019-05-19T02:47:44.312Z,11.93
2019-05-19T02:50:13.968Z,11.67
2019-05-19T02:52:46.522Z,11.47
2019-05-19T02:55:17.322Z,12.60
2019-05-19T02:57:48.334Z,12.57
2019-05-19T03:00:18.271Z,12.60
2019-05-19T03:02:47.544Z,13.20
2019-05-19T03:05:17.007Z,13.50
2019-05-19T03:07:46.555Z,14.37
2019-05-19T03:10:15.830Z,13.87
2019-05-19T03:12:45.092Z,15.00
2019-05-19T03:15:14.452Z,14.27
2019-05-19T03:17:43.844Z,14.17
2019-05-19T03:20:13.140Z,14.60
2019-05-19T03:22:42.778Z,14.70
2019-05-19T03:25:12.607Z,13.97
2019-05-19T03:27:42.009Z,13.70
2019-05-19T03:30:41.579Z,14.27
2019-05-19T03:33:11.113Z,14.10
2019-05-19T03:35:40.437Z,14.90
2019-05-19T03:38:10.015Z,15.17
2019-05-19T03:40:39.305Z,15.83
2019-05-19T03:43:08.835Z,14.97
2019-05-19T03:45:38.422Z,15.20
2019-05-19T03:48:07.755Z,18.30
2019-05-19T03:50:37.043Z,17.20
2019-05-19T03:53:06.645Z,17.83
2019-05-19T03:55:36.224Z,18.07
2019-05-19T03:58:05.536Z,17.53
2019-05-19T04:00:34.855Z,17.17
2019-05-19T04:03:04.240Z,17.20
2019-05-19T04:05:33.520Z,17.47
2019-05-19T04:08:02.895Z,18.37
2019-05-19T04:10:32.201Z,16.37
2019-05-19T04:13:01.493Z,17.30
2019-05-19T04:15:30.791Z,17.27
2019-05-19T04:18:00.328Z,17.83
2019-05-19T04:20:29.608Z,17.23
2019-05-19T04:22:59.189Z,16.63
2019-05-19T04:25:28.733Z,15.87
2019-05-19T04:27:58.036Z,17.33
2019-05-19T04:30:27.601Z,17.10
2019-05-19T04:32:56.864Z,16.90
2019-05-19T04:35:26.419Z,16.80
2019-05-19T04:37:55.709Z,15.10
2019-05-19T04:40:25.344Z,14.97
2019-05-19T04:42:54.884Z,15.20
2019-05-19T04:45:24.205Z,15.27
2019-05-19T04:47:53.475Z,14.73
2019-05-19T04:50:23.367Z,15.13
2019-05-19T04:52:52.691Z,16.07
2019-05-19T04:55:22.006Z,15.63
2019-05-19T04:57:51.640Z,16.10
2019-05-19T05:00:21.028Z,15.77
2019-05-19T05:02:50.307Z,16.67
2019-05-19T05:05:19.605Z,16.57
2019-05-19T05:07:48.984Z,17.23
2019-05-19T05:10:18.365Z,17.47
2019-05-19T05:12:48.238Z,16.83
2019-05-19T05:15:17.782Z,16.40
2019-05-19T05:17:47.189Z,15.97
2019-05-19T05:20:17.568Z,16.93
2019-05-19T05:22:47.490Z,16.73
2019-05-19T05:25:16.912Z,16.27
2019-05-19T05:27:46.303Z,16.73
2019-05-19T05:30:16.096Z,15.20
2019-05-19T05:32:45.747Z,17.40
2019-05-19T05:35:15.199Z,16.40
2019-05-19T05:37:44.524Z,16.70
2019-05-19T05:40:13.935Z,17.17
2019-05-19T05:42:43.549Z,17.87
2019-05-19T05:45:14.227Z,17.53
2019-05-19T05:47:43.531Z,18.33
2019-05-19T05:50:13.297Z,17.13
2019-05-19T05:52:42.634Z,18.03
2019-05-19T05:55:11.987Z,18.17
2019-05-19T05:57:41.383Z,18.97
2019-05-19T06:00:10.907Z,17.80
2019-05-19T06:02:40.464Z,18.20
2019-05-19T06:05:10.021Z,18.10
2019-05-19T06:07:39.306Z,18.60
2019-05-19T06:10:09.090Z,19.07
2019-05-19T06:12:38.740Z,20.83
2019-05-19T06:15:08.497Z,19.80
2019-05-19T06:17:37.813Z,18.83
2019-05-19T06:20:08.573Z,19.00
2019-05-19T06:22:54.389Z,19.17
2019-05-19T06:25:09.784Z,18.60
2019-05-19T06:27:39.492Z,19.33
2019-05-19T06:30:09.211Z,18.93
2019-05-19T06:32:45.701Z,19.47
2019-05-19T06:35:15.370Z,18.43
2019-05-19T06:37:44.841Z,20.60
2019-05-19T06:40:14.507Z,19.70
2019-05-19T06:42:44.061Z,19.73
2019-05-19T06:45:14.111Z,20.17
2019-05-19T06:47:43.411Z,20.23
2019-05-19T06:50:14.470Z,20.67
2019-05-19T06:52:44.096Z,20.00
2019-05-19T06:55:13.789Z,19.07
2019-05-19T06:57:43.393Z,19.53
2019-05-19T07:00:14.196Z,20.17
2019-05-19T07:02:43.500Z,20.23
2019-05-19T07:05:13.517Z,20.57
2019-05-19T07:07:43.157Z,21.77
2019-05-19T07:10:12.851Z,20.83
2019-05-19T07:12:42.137Z,21.87
2019-05-19T07:15:12.044Z,21.30
2019-05-19T07:17:41.325Z,22.80
2019-05-19T07:20:11.091Z,21.83
2019-05-19T07:22:40.442Z,22.33
2019-05-19T07:25:10.117Z,22.83
2019-05-19T07:27:39.401Z,22.90
2019-05-19T07:30:09.221Z,22.70
2019-05-19T07:32:38.775Z,22.00
2019-05-19T07:35:08.126Z,23.37
2019-05-19T07:37:37.512Z,23.50
2019-05-19T07:40:07.108Z,24.87
2019-05-19T07:42:36.527Z,23.30
2019-05-19T07:45:06.494Z,24.13
2019-05-19T07:47:36.097Z,24.13
2019-05-19T07:50:05.716Z,24.97
2019-05-19T07:52:35.143Z,24.10
2019-05-19T07:55:04.759Z,25.53
2019-05-19T07:57:34.660Z,23.63
2019-05-19T08:00:04.090Z,24.40
2019-05-19T08:02:33.680Z,24.00
2019-05-19T08:05:02.976Z,24.03
2019-05-19T08:07:32.594Z,24.70
2019-05-19T08:10:01.884Z,23.87
2019-05-19T08:12:31.568Z,25.33
2019-05-19T08:15:01.012Z,24.17
2019-05-19T08:17:30.599Z,23.63
2019-05-19T08:20:00.141Z,24.83
2019-05-19T08:22:29.448Z,23.90
2019-05-19T08:24:58.995Z,24.90
2019-05-19T08:27:28.619Z,25.37
2019-05-19T08:29:57.983Z,25.10
2019-05-19T08:32:27.412Z,24.97
2019-05-19T08:34:57.001Z,28.27
2019-05-19T08:37:26.294Z,28.30
2019-05-19T08:39:55.576Z,28.10
2019-05-19T08:42:25.055Z,27.27
2019-05-19T08:44:54.623Z,28.23
2019-05-19T08:47:24.171Z,29.33
2019-05-19T08:49:53.463Z,28.60
2019-05-19T08:52:23.054Z,28.00
2019-05-19T08:54:52.367Z,27.80
2019-05-19T08:57:21.984Z,28.17
2019-05-19T08:59:51.344Z,27.30
2019-05-19T09:02:25.910Z,27.83
2019-05-19T09:04:55.176Z,26.23
2019-05-19T09:07:24.484Z,25.97
2019-05-19T09:09:54.019Z,26.83
2019-05-19T09:12:23.335Z,25.43
2019-05-19T09:14:52.872Z,25.73
2019-05-19T09:17:22.439Z,24.77
2019-05-19T09:19:51.719Z,23.53
2019-05-19T09:22:21.056Z,25.60
2019-05-19T09:24:50.677Z,22.87
2019-05-19T09:27:19.967Z,24.10
2019-05-19T09:29:49.263Z,22.50
2019-05-19T09:32:18.548Z,21.60
2019-05-19T09:34:48.094Z,20.37
2019-05-19T09:37:17.697Z,20.70
2019-05-19T09:39:47.335Z,23.30
2019-05-19T09:42:16.616Z,22.27
2019-05-19T09:44:45.923Z,17.10
2019-05-19T09:47:15.279Z,20.83
2019-05-19T09:49:44.611Z,18.70
2019-05-19T09:52:17.016Z,21.17
2019-05-19T09:54:45.910Z,20.07
2019-05-19T09:57:15.594Z,21.97
2019-05-19T09:59:44.881Z,21.33
2019-05-19T10:02:14.155Z,22.03
2019-05-19T10:04:43.948Z,21.93
2019-05-19T10:07:13.492Z,19.93
2019-05-19T10:10:02.169Z,20.73
2019-05-19T10:12:31.885Z,21.23
2019-05-19T10:15:01.823Z,20.37
2019-05-19T10:17:31.973Z,18.73
2019-05-19T10:20:01.338Z,19.27
2019-05-19T10:22:31.116Z,22.17
2019-05-19T10:25:20.411Z,20.03
2019-05-19T10:27:31.602Z,19.83
2019-05-19T10:30:00.899Z,19.33
2019-05-19T10:32:30.226Z,20.37
2019-05-19T10:34:59.801Z,20.97
2019-05-19T10:37:29.177Z,21.40
2019-05-19T10:39:59.233Z,21.73
2019-05-19T10:42:28.534Z,19.30
2019-05-19T10:44:58.451Z,19.17
2019-05-19T10:47:29.237Z,18.43
2019-05-19T10:50:05.792Z,18.27
2019-05-19T10:52:35.117Z,18.17
2019-05-19T10:55:05.158Z,18.10
2019-05-19T10:57:34.869Z,18.60
2019-05-19T11:00:04.739Z,17.67
2019-05-19T11:02:34.004Z,18.43
2019-05-19T11:05:03.317Z,16.73
2019-05-19T11:07:32.906Z,15.73
2019-05-19T11:10:02.233Z,19.37
2019-05-19T11:12:32.503Z,18.30
2019-05-19T11:15:01.901Z,19.00
2019-05-19T11:17:31.249Z,19.03
2019-05-19T11:20:00.552Z,18.63
2019-05-19T11:22:30.219Z,18.23
2019-05-19T11:24:59.799Z,18.47
2019-05-19T11:27:29.436Z,18.67
2019-05-19T11:29:58.723Z,17.90
2019-05-19T11:32:28.400Z,16.63
2019-05-19T11:34:57.703Z,17.13
2019-05-19T11:37:27.240Z,17.50
2019-05-19T11:39:56.784Z,17.90
2019-05-19T11:42:26.612Z,15.93
2019-05-19T11:44:56.251Z,15.30
2019-05-19T11:47:25.880Z,14.87
2019-05-19T11:49:55.403Z,14.07
2019-05-19T11:52:25.596Z,14.27
2019-05-19T11:54:54.868Z,12.97
2019-05-19T11:57:24.168Z,14.60
2019-05-19T11:59:53.749Z,14.03
2019-05-19T12:02:23.319Z,12.47
2019-05-19T12:04:52.616Z,12.87
2019-05-19T12:07:22.168Z,14.27
2019-05-19T12:09:51.717Z,13.50
2019-05-19T12:12:21.333Z,13.27
2019-05-19T12:14:50.931Z,13.13
2019-05-19T12:17:20.521Z,13.20
2019-05-19T12:19:50.137Z,12.43
2019-05-19T12:22:19.422Z,12.10
2019-05-19T12:24:48.695Z,11.47
2019-05-19T12:27:18.004Z,10.13
2019-05-19T12:29:47.960Z,9.83
2019-05-19T12:32:17.599Z,9.53
2019-05-19T12:34:47.187Z,11.63
2019-05-19T12:37:16.528Z,10.60
2019-05-19T12:39:49.296Z,11.17
2019-05-19T12:42:18.605Z,8.90
2019-05-19T12:44:52.983Z,7.43
2019-05-19T12:47:23.956Z,7.40
2019-05-19T12:49:55.324Z,9.07
2019-05-19T12:52:31.745Z,9.50
2019-05-19T12:55:08.850Z,8.23
2019-05-19T12:57:40.100Z,9.87
2019-05-19T13:00:17.251Z,9.30
2019-05-19T13:02:47.277Z,8.73
2019-05-19T13:05:17.230Z,8.40
2019-05-19T13:07:47.310Z,8.60
2019-05-19T13:10:21.678Z,5.17
2019-05-19T13:12:54.746Z,3.70
2019-05-19T13:15:25.756Z,3.60
2019-05-19T13:17:58.562Z,2.57
2019-05-19T13:20:27.624Z,2.30
2019-05-19T13:22:57.056Z,16.30
2019-05-19T13:25:26.415Z,2.47
2019-05-19T13:27:55.850Z,2.30
2019-05-19T13:30:25.536Z,1.90
2019-05-19T13:32:55.138Z,2.00
2019-05-19T13:35:24.624Z,2.53
2019-05-19T13:37:54.080Z,4.50
2019-05-19T13:40:25.125Z,2.37
2019-05-19T13:42:54.612Z,2.63
2019-05-19T13:45:31.545Z,2.33
2019-05-19T13:48:00.933Z,2.40
2019-05-19T13:50:33.689Z,2.87
2019-05-19T13:53:03.228Z,2.70
2019-05-19T13:55:38.930Z,3.00
2019-05-19T13:58:08.671Z,2.57
2019-05-19T14:00:39.613Z,2.70
2019-05-19T14:03:10.483Z,3.40
2019-05-19T14:05:40.030Z,2.70
2019-05-19T14:08:09.639Z,3.63
2019-05-19T14:10:45.324Z,2.57
2019-05-19T14:13:15.000Z,3.20
2019-05-19T14:15:55.966Z,3.67
2019-05-19T14:18:29.113Z,3.20
2019-05-19T14:21:02.220Z,3.17
2019-05-19T14:23:31.664Z,3.53
2019-05-19T14:26:04.836Z,3.40
2019-05-19T14:28:36.798Z,3.70
2019-05-19T14:31:06.327Z,6.60
2019-05-19T14:33:35.882Z,3.70
2019-05-19T14:36:07.553Z,3.57
2019-05-19T14:38:38.893Z,2.97
2019-05-19T14:41:10.873Z,2.93
2019-05-19T14:43:40.385Z,3.60
2019-05-19T14:46:09.954Z,2.97
2019-05-19T14:48:40.511Z,3.00
2019-05-19T14:51:14.296Z,3.57
2019-05-19T14:53:43.895Z,3.30
2019-05-19T14:56:21.026Z,2.97
2019-05-19T14:58:53.900Z,3.80
2019-05-19T15:01:26.537Z,3.90
2019-05-19T15:03:55.998Z,4.37
2019-05-19T15:06:29.524Z,4.20
2019-05-19T15:09:03.178Z,3.57
2019-05-19T15:14:15.691Z,4.43
2019-05-19T15:16:52.775Z,5.33
2019-05-19T15:19:23.559Z,5.20
2019-05-19T15:21:54.184Z,6.43
2019-05-19T15:24:23.893Z,6.63
2019-05-19T15:26:53.674Z,6.20
2019-05-19T15:29:28.262Z,6.40
2019-05-19T15:31:57.529Z,5.63
2019-05-19T15:34:39.078Z,4.70
2019-05-19T15:37:08.425Z,4.60
2019-05-19T15:39:40.812Z,5.13
2019-05-19T15:42:10.183Z,5.47
2019-05-19T15:44:39.789Z,5.57
2019-05-19T15:47:16.216Z,6.57
2019-05-19T15:49:45.531Z,5.73
2019-05-19T15:52:14.893Z,5.70
2019-05-19T15:54:45.369Z,6.40
2019-05-19T15:57:14.984Z,6.30
2019-05-19T15:59:46.473Z,5.63
2019-05-19T16:02:18.896Z,5.73
2019-05-19T16:04:48.148Z,5.93
2019-05-19T16:07:17.440Z,5.00
2019-05-19T16:09:46.970Z,5.10
2019-05-19T16:12:16.519Z,4.87
2019-05-19T16:14:46.952Z,4.60
2019-05-19T16:17:16.297Z,4.77
2019-05-19T16:19:45.559Z,4.23
2019-05-19T16:22:14.870Z,4.10
2019-05-19T16:24:44.551Z,4.97
2019-05-19T16:27:14.396Z,5.00
2019-05-19T16:29:43.980Z,5.20
2019-05-19T16:32:13.617Z,4.43
2019-05-19T16:34:43.599Z,4.80
2019-05-19T16:37:13.004Z,4.90
2019-05-19T16:39:42.412Z,4.37
2019-05-19T16:42:16.021Z,4.23
2019-05-19T16:44:51.832Z,4.33
2019-05-19T16:47:21.972Z,4.87
2019-05-19T16:49:51.283Z,4.50
2019-05-19T16:52:20.663Z,4.20
2019-05-19T16:55:09.210Z,4.57
2019-05-19T16:57:38.534Z,4.40
2019-05-19T17:00:08.252Z,5.53
2019-05-19T17:02:37.956Z,5.10
2019-05-19T17:07:59.492Z,5.20
2019-05-19T17:10:29.095Z,4.37
2019-05-19T17:12:59.759Z,4.33
2019-05-19T17:15:32.553Z,5.10
2019-05-19T17:18:01.855Z,4.80
2019-05-19T17:20:31.314Z,5.10
2019-05-19T17:23:00.646Z,5.23
2019-05-19T17:25:30.004Z,4.60
2019-05-19T17:27:59.910Z,5.20
2019-05-19T17:30:29.536Z,5.60
2019-05-19T17:32:58.919Z,5.37
2019-05-19T17:35:28.187Z,5.73
2019-05-19T17:37:57.503Z,5.80
2019-05-19T17:40:26.819Z,5.27
2019-05-19T17:42:56.415Z,5.43
2019-05-19T17:45:25.760Z,5.47
2019-05-19T17:48:09.118Z,7.63
2019-05-19T17:50:33.640Z,7.20
2019-05-19T17:53:03.503Z,8.33
2019-05-19T17:55:34.591Z,8.77
2019-05-19T17:58:04.768Z,8.87
2019-05-19T18:00:36.722Z,6.73
2019-05-19T18:03:06.815Z,6.50
2019-05-19T18:05:36.350Z,7.13
2019-05-19T18:08:05.924Z,7.03
2019-05-19T18:10:35.357Z,7.43
2019-05-19T18:13:04.907Z,6.57
2019-05-19T18:15:34.292Z,6.47
2019-05-19T18:18:03.815Z,7.37
2019-05-19T18:20:33.407Z,7.10
2019-05-19T18:23:03.319Z,6.73
2019-05-19T18:25:32.701Z,7.00
2019-05-19T18:28:02.321Z,7.30
2019-05-19T18:30:31.926Z,7.53
2019-05-19T18:33:01.498Z,7.73
2019-05-19T18:35:31.022Z,8.07
2019-05-19T18:38:00.601Z,8.50
2019-05-19T18:40:30.195Z,8.33
2019-05-19T18:43:00.153Z,8.37
2019-05-19T18:45:30.047Z,9.13
2019-05-19T18:47:59.711Z,9.40
2019-05-19T18:50:29.246Z,9.23
2019-05-19T18:52:58.965Z,9.03
2019-05-19T18:55:28.598Z,9.33
2019-05-19T18:57:58.490Z,10.27
2019-05-19T19:00:38.903Z,10.50
2019-05-19T19:03:09.946Z,10.93
2019-05-19T19:05:39.246Z,11.20
2019-05-19T19:08:08.573Z,11.80
2019-05-19T19:10:37.990Z,13.10
2019-05-19T19:13:07.939Z,13.10
2019-05-19T19:15:37.966Z,12.60
2019-05-19T19:18:07.532Z,11.57
2019-05-19T19:20:37.242Z,12.60
2019-05-19T19:23:17.305Z,11.43
2019-05-19T19:25:47.018Z,11.03
2019-05-19T19:28:17.165Z,11.30
2019-05-19T19:30:46.573Z,11.70
2019-05-19T19:33:16.541Z,11.37
2019-05-19T19:35:45.885Z,11.47
2019-05-19T19:38:15.464Z,11.57
2019-05-19T19:40:44.817Z,11.00
2019-05-19T19:43:14.545Z,11.40
2019-05-19T19:45:44.289Z,11.43
2019-05-19T19:48:14.682Z,10.50
2019-05-19T19:50:44.114Z,10.63
2019-05-19T19:53:13.511Z,10.90
2019-05-19T19:55:43.074Z,10.33
2019-05-19T19:58:12.654Z,11.10
2019-05-19T20:00:44.475Z,11.67
2019-05-19T20:03:14.422Z,11.93
2019-05-19T20:05:44.614Z,12.53
2019-05-19T20:08:14.403Z,13.97
2019-05-19T20:10:44.412Z,11.93
2019-05-19T20:13:14.151Z,12.03
2019-05-19T20:15:43.470Z,12.60
2019-05-19T20:18:12.832Z,11.90
2019-05-19T20:20:42.191Z,13.10
2019-05-19T20:23:11.501Z,13.87
2019-05-19T20:25:41.136Z,13.57
2019-05-19T20:28:10.511Z,25.60
2019-05-19T20:30:40.484Z,18.70
2019-05-19T20:33:14.464Z,14.03
2019-05-19T20:35:44.075Z,14.43
2019-05-19T20:38:13.622Z,14.20
2019-05-19T20:40:43.452Z,18.43
2019-05-19T20:43:12.796Z,15.70
2019-05-19T20:45:42.503Z,15.43
2019-05-19T20:48:11.811Z,15.30
2019-05-19T20:50:41.441Z,15.70
2019-05-19T20:53:11.523Z,16.87
2019-05-19T20:55:40.810Z,14.90
2019-05-19T20:58:10.148Z,15.30
2019-05-19T21:00:50.058Z,18.63
2019-05-19T21:03:11.310Z,15.97
2019-05-19T21:05:40.701Z,16.23
2019-05-19T21:08:10.271Z,16.70
2019-05-19T21:10:39.866Z,17.17
2019-05-19T21:13:09.367Z,17.57
2019-05-19T21:15:38.648Z,19.40
2019-05-19T21:18:08.240Z,19.13
2019-05-19T21:20:38.528Z,19.03
2019-05-19T21:23:07.808Z,21.57
2019-05-19T21:25:37.127Z,21.13
2019-05-19T21:28:06.727Z,21.73
2019-05-19T21:30:36.314Z,22.80
2019-05-19T21:33:05.598Z,22.67
2019-05-19T21:35:34.952Z,22.00
2019-05-19T21:38:04.544Z,23.10
2019-05-19T21:40:33.843Z,21.63
2019-05-19T21:43:03.161Z,23.97
2019-05-19T21:45:32.444Z,22.70
2019-05-19T21:48:02.094Z,23.93
2019-05-19T21:50:31.437Z,23.63
2019-05-19T21:53:00.742Z,24.17
2019-05-19T21:55:30.365Z,23.73
2019-05-19T21:57:59.647Z,24.07
2019-05-19T22:00:31.479Z,23.80
2019-05-19T22:03:01.217Z,23.83
2019-05-19T22:05:30.772Z,24.43
2019-05-19T22:08:10.126Z,23.37
2019-05-19T22:10:39.428Z,26.53
2019-05-19T22:13:08.700Z,26.67
2019-05-19T22:15:38.286Z,24.60
2019-05-19T22:18:07.582Z,23.83
2019-05-19T22:20:36.916Z,24.57
2019-05-19T22:23:06.628Z,25.97
2019-05-19T22:25:36.284Z,25.80
2019-05-19T22:28:05.577Z,25.53
2019-05-19T22:30:35.161Z,24.43
2019-05-19T22:33:04.486Z,25.70
2019-05-19T22:35:33.772Z,24.37
2019-05-19T22:38:03.043Z,24.83
2019-05-19T22:40:32.376Z,24.07
2019-05-19T22:43:01.637Z,28.40
2019-05-19T22:45:31.201Z,29.13
2019-05-19T22:48:00.495Z,27.47
2019-05-19T22:50:30.064Z,24.70
2019-05-19T22:52:59.653Z,23.80
2019-05-19T22:55:28.987Z,23.00
2019-05-19T22:57:58.681Z,23.80
2019-05-19T23:00:28.309Z,24.20
2019-05-19T23:02:57.881Z,26.20
2019-05-19T23:05:27.458Z,25.67
2019-05-19T23:07:56.925Z,24.23
2019-05-19T23:10:27.779Z,25.17
2019-05-19T23:12:57.395Z,23.23
2019-05-19T23:15:26.685Z,25.50
2019-05-19T23:17:55.989Z,25.93
2019-05-19T23:20:25.689Z,24.37
2019-05-19T23:22:55.456Z,25.87
2019-05-19T23:25:24.756Z,24.77
2019-05-19T23:27:54.318Z,25.93
2019-05-19T23:30:24.147Z,25.40
2019-05-19T23:32:54.044Z,27.53
2019-05-19T23:35:23.352Z,27.60
2019-05-19T23:37:52.979Z,29.00
2019-05-19T23:40:22.604Z,29.17
2019-05-19T23:42:52.194Z,28.57
2019-05-19T23:45:21.538Z,27.53
2019-05-19T23:47:50.850Z,30.23
2019-05-19T23:50:20.159Z,29.47
2019-05-19T23:52:49.537Z,25.50
2019-05-19T23:55:18.893Z,25.40
2019-05-19T23:57:48.466Z,23.43
